Time;durP1;ratioP1;P1;durP2;ratioP2;P2;SDS_P1;SDS_P2;PMS_P1;PMS_P2;Temp;Humidity;BMP_temperature;BMP_pressure;BME280_temperature;BME280_humidity;BME280_pressure;Samples;Min_cycle;Max_cycle;Signal;HPM_P1;HPM_P2
2022/05/18 00:02:14;;;;;;;;;5.50;3.25;;;;;24.98;43.42;101164.97;5026539;28;64843;-50
2022/05/18 00:04:39;;;;;;;;;7.00;5.50;;;;;24.97;43.40;101171.28;5033374;28;46800;-50
2022/05/18 00:07:05;;;;;;;;;7.75;5.50;;;;;24.95;43.35;101173.22;5036343;28;59704;-52
2022/05/18 00:09:30;;;;;;;;;9.00;6.25;;;;;24.94;43.44;101170.69;5023514;28;46444;-48
2022/05/18 00:11:55;;;;;;;;;5.50;4.75;;;;;24.87;43.52;101170.31;5022431;28;62008;-51
2022/05/18 00:14:21;;;;;;;;;4.75;4.25;;;;;24.88;43.53;101174.72;5035281;28;45233;-50
2022/05/18 00:16:46;;;;;;;;;6.50;4.25;;;;;24.85;44.15;101182.13;5022460;28;45309;-49
2022/05/18 00:19:11;;;;;;;;;6.50;4.00;;;;;24.80;43.83;101188.69;5025117;28;64693;-50
2022/05/18 00:21:37;;;;;;;;;4.75;4.75;;;;;24.76;43.82;101187.25;5031972;28;58454;-51
2022/05/18 00:24:04;;;;;;;;;5.50;5.50;;;;;24.71;44.71;101188.59;5036606;28;45544;-49
2022/05/18 00:26:29;;;;;;;;;7.25;7.25;;;;;24.65;45.04;101187.25;5033190;28;46232;-50
2022/05/18 00:28:55;;;;;;;;;10.00;6.00;;;;;24.65;44.73;101187.25;5036475;28;45289;-49
2022/05/18 00:31:20;;;;;;;;;5.00;5.00;;;;;24.62;45.00;101193.69;5039190;28;54286;-49
2022/05/18 00:33:47;;;;;;;;;6.00;4.25;;;;;24.58;45.13;101197.59;5035305;28;63981;-51
2022/05/18 00:36:12;;;;;;;;;8.00;5.75;;;;;24.54;45.69;101193.47;5025214;28;45536;-51
2022/05/18 00:38:38;;;;;;;;;6.25;5.25;;;;;24.50;45.30;101194.63;5028493;28;64771;-50
2022/05/18 00:41:04;;;;;;;;;10.75;8.00;;;;;24.45;46.13;101197.69;5032043;28;45489;-49
2022/05/18 00:43:29;;;;;;;;;6.00;5.25;;;;;24.43;46.62;101209.44;5039872;28;63912;-49
2022/05/18 00:45:54;;;;;;;;;6.00;5.33;;;;;24.39;46.31;101213.34;5032865;28;45274;-49
2022/05/18 00:48:20;;;;;;;;;6.50;5.25;;;;;24.37;46.44;101215.28;5025081;28;45227;-51
2022/05/18 00:50:46;;;;;;;;;5.25;5.25;;;;;24.30;45.79;101214.91;5031551;28;63741;-51
2022/05/18 00:53:22;;;;;;;;;9.00;4.75;;;;;24.24;45.68;101221.59;5033144;28;45353;-51
2022/05/18 00:55:57;;;;;;;;;5.25;4.00;;;;;24.19;47.06;101220.25;5027139;28;45331;-49
2022/05/18 00:58:30;;;;;;;;;7.75;6.00;;;;;24.12;47.15;101219.88;5031964;28;45697;-49
2022/05/18 01:00:56;;;;;;;;;5.75;4.25;;;;;24.07;46.13;101222.03;5022812;28;45376;-50
2022/05/18 01:03:29;;;;;;;;;5.25;5.25;;;;;24.01;47.13;101226.03;5030679;28;45608;-49
2022/05/18 01:06:04;;;;;;;;;9.50;7.00;;;;;23.95;47.51;101231.84;5021935;28;45403;-51
2022/05/18 01:08:41;;;;;;;;;4.00;4.00;;;;;23.93;47.95;101233.78;5023986;28;45368;-50
2022/05/18 01:11:06;;;;;;;;;7.00;7.00;;;;;23.87;48.19;101239.59;5034950;28;45543;-49
2022/05/18 01:13:31;;;;;;;;;5.00;4.00;;;;;23.78;47.79;101238.44;5034755;28;68263;-50
2022/05/18 01:15:57;;;;;;;;;6.75;5.00;;;;;23.73;48.16;101239.72;5027872;28;51447;-48
2022/05/18 01:18:22;;;;;;;;;7.25;5.00;;;;;23.65;47.92;101234.94;5031588;28;68281;-51
2022/05/18 01:20:48;;;;;;;;;5.25;5.00;;;;;23.63;48.65;101236.91;5033618;28;45351;-49
2022/05/18 01:23:26;;;;;;;;;6.00;5.00;;;;;23.59;48.14;101232.75;5021247;28;45492;-51
2022/05/18 01:25:54;;;;;;;;;6.75;6.00;;;;;23.57;48.42;101238.22;5033981;28;47168;-50
2022/05/18 01:28:21;;;;;;;;;5.50;5.00;;;;;23.53;48.39;101238.53;5030936;28;45899;-49
2022/05/18 01:30:47;;;;;;;;;6.50;4.75;;;;;23.50;48.63;101239.63;5025757;28;45513;-50
2022/05/18 01:33:15;;;;;;;;;7.00;6.00;;;;;23.48;48.29;101246.91;5039750;28;45417;-48
2022/05/18 01:35:42;;;;;;;;;5.25;4.75;;;;;23.45;49.04;101258.66;5029367;28;46151;-49
2022/05/18 01:38:12;;;;;;;;;6.75;5.00;;;;;23.41;48.76;101251.84;5022486;28;45379;-49
2022/05/18 01:40:58;;;;;;;;;6.00;5.25;;;;;23.34;49.67;101245.25;5027567;28;45461;-48
2022/05/18 01:43:46;;;;;;;;;7.25;5.00;;;;;23.27;49.24;101244.81;5020127;28;45638;-50
2022/05/18 01:46:13;;;;;;;;;7.50;6.25;;;;;23.22;50.44;101249.63;5021492;28;45578;-50
2022/05/18 01:48:42;;;;;;;;;5.75;5.75;;;;;23.19;49.62;101249.84;5021875;28;45725;-49
2022/05/18 01:51:08;;;;;;;;;4.75;4.75;;;;;23.17;50.79;101261.63;5026818;28;45304;-49
2022/05/18 01:53:35;;;;;;;;;7.00;6.00;;;;;23.11;50.00;101258.44;5027786;28;64666;-49
2022/05/18 01:56:02;;;;;;;;;6.00;5.50;;;;;23.06;49.69;101257.06;5029140;28;46608;-49
2022/05/18 01:58:27;;;;;;;;;5.00;5.00;;;;;23.02;50.53;101263.53;5035782;28;45295;-48
2022/05/18 02:00:53;;;;;;;;;6.75;6.00;;;;;22.97;51.03;101271.88;5028040;28;45514;-49
2022/05/18 02:03:20;;;;;;;;;6.50;6.00;;;;;22.90;50.69;101268.78;5032678;28;45264;-48
2022/05/18 02:05:45;;;;;;;;;5.00;5.00;;;;;22.83;51.38;101266.66;5032852;28;46297;-49
2022/05/18 02:08:15;;;;;;;;;6.00;5.00;;;;;22.77;51.43;101265.28;5034598;28;68364;-50
2022/05/18 02:10:41;;;;;;;;;8.25;5.25;;;;;22.69;50.09;101272.97;5034821;28;45501;-48
2022/05/18 02:13:07;;;;;;;;;5.25;5.00;;;;;22.62;51.73;101279.69;5026008;28;45585;-51
2022/05/18 02:15:34;;;;;;;;;4.50;4.50;;;;;22.58;51.83;101283.53;5031029;28;46232;-49
2022/05/18 02:17:59;;;;;;;;;7.75;5.00;;;;;22.54;51.49;101282.88;5031237;28;45273;-48
2022/05/18 02:20:24;;;;;;;;;7.50;5.25;;;;;22.52;51.45;101290.13;5033727;28;45243;-50
2022/05/18 02:22:51;;;;;;;;;7.50;5.25;;;;;22.49;52.20;101287.69;5030771;28;67387;-50
2022/05/18 02:25:17;;;;;;;;;8.75;5.25;;;;;22.42;52.48;101295.25;5026024;28;46166;-51
2022/05/18 02:27:42;;;;;;;;;5.50;5.00;;;;;22.37;51.96;101300.03;5038077;28;45438;-49
2022/05/18 02:30:08;;;;;;;;;6.25;6.00;;;;;22.30;52.89;101298.75;5029430;28;45326;-49
2022/05/18 02:32:34;;;;;;;;;7.00;4.25;;;;;22.22;52.71;101299.22;5030526;28;45430;-51
2022/05/18 02:34:59;;;;;;;;;5.00;4.00;;;;;22.17;52.33;101299.53;5032467;28;45326;-50
2022/05/18 02:37:26;;;;;;;;;5.00;5.00;;;;;22.12;53.08;101306.13;5028626;28;59545;-51
2022/05/18 02:39:52;;;;;;;;;6.50;5.00;;;;;22.11;52.89;101315.91;5032959;28;45357;-50
2022/05/18 02:42:17;;;;;;;;;5.50;4.00;;;;;22.07;53.06;101324.25;5033823;28;45209;-51
2022/05/18 02:44:43;;;;;;;;;1.00;1.00;;;;;22.02;52.98;101319.19;5030577;28;62364;-49
2022/05/18 02:47:08;;;;;;;;;3.75;3.00;;;;;21.97;52.97;101326.66;5026876;28;45226;-51
2022/05/18 02:49:33;;;;;;;;;7.25;4.25;;;;;21.90;53.54;101331.53;5029921;28;45411;-51
2022/05/18 02:51:59;;;;;;;;;3.50;2.00;;;;;21.84;52.44;101329.25;5026124;28;45300;-52
2022/05/18 02:57:10;;;;;;;;;3.00;3.00;;;;;21.67;52.10;101330.34;5023824;28;45672;-50
2022/05/18 02:59:35;;;;;;;;;4.75;3.00;;;;;21.58;52.72;101334.47;5033818;28;45595;-52
2022/05/18 03:02:01;;;;;;;;;5.00;3.25;;;;;21.52;52.79;101344.66;5034410;28;45466;-48
2022/05/18 03:04:29;;;;;;;;;3.00;2.00;;;;;21.46;53.01;101337.91;5027766;28;47009;-51
2022/05/18 03:06:55;;;;;;;;;2.00;2.00;;;;;21.39;52.74;101333.91;5031615;28;45362;-50
2022/05/18 03:09:20;;;;;;;;;5.25;1.50;;;;;21.32;52.82;101325.44;5030986;28;45569;-50
2022/05/18 03:11:46;;;;;;;;;2.00;2.00;;;;;21.26;52.57;101335.59;5025163;28;63746;-49
2022/05/18 03:14:12;;;;;;;;;2.25;2.25;;;;;21.19;52.36;101335.97;5029154;28;46355;-50
2022/05/18 03:16:38;;;;;;;;;3.00;2.00;;;;;21.10;53.36;101335.72;5037705;28;45239;-49
2022/05/18 03:19:03;;;;;;;;;2.25;1.50;;;;;21.03;52.95;101333.44;5032956;28;63610;-51
2022/05/18 03:24:12;;;;;;;;;5.25;3.25;;;;;20.94;53.19;101336.63;5035411;28;45247;-51
2022/05/18 03:26:37;;;;;;;;;2.25;1.00;;;;;20.91;52.66;101341.28;5031322;28;68141;-48
2022/05/18 03:29:03;;;;;;;;;1.50;1.50;;;;;20.84;52.94;101336.34;5027341;28;45359;-48
2022/05/18 03:31:29;;;;;;;;;3.75;2.00;;;;;20.81;53.12;101349.84;5025638;28;48389;-49
2022/05/18 03:33:55;;;;;;;;;2.00;1.00;;;;;20.79;52.96;101356.22;5026958;28;52537;-48
2022/05/18 03:36:21;;;;;;;;;2.00;1.25;;;;;20.77;51.91;101350.09;5029324;28;45348;-51
2022/05/18 03:38:47;;;;;;;;;2.00;1.50;;;;;20.76;52.64;101356.38;5028200;28;45453;-51
2022/05/18 03:41:13;;;;;;;;;2.00;1.00;;;;;20.70;53.29;101360.28;5037008;28;45249;-52
2022/05/18 03:43:39;;;;;;;;;3.75;3.00;;;;;20.66;53.27;101369.38;5027852;28;45474;-51
2022/05/18 03:46:04;;;;;;;;;2.50;1.25;;;;;20.61;53.70;101374.97;5019924;28;45431;-50
2022/05/18 03:48:32;;;;;;;;;2.00;2.00;;;;;20.60;53.66;101380.34;5019231;28;45535;-49
2022/05/18 03:50:58;;;;;;;;;3.50;3.50;;;;;20.58;53.68;101385.75;5031105;28;45270;-49
2022/05/18 03:53:24;;;;;;;;;1.75;1.25;;;;;20.55;53.41;101385.06;5019064;28;46329;-49
2022/05/18 03:55:50;;;;;;;;;2.00;1.25;;;;;20.52;53.73;101388.75;5030702;28;45652;-50
2022/05/18 03:58:16;;;;;;;;;2.75;1.00;;;;;20.51;53.04;101389.72;5028179;28;62045;-50
2022/05/18 04:00:43;;;;;;;;;1.50;1.50;;;;;20.46;53.05;101394.44;5025250;28;45419;-52
2022/05/18 04:03:10;;;;;;;;;4.25;2.00;;;;;20.42;52.90;101396.44;5027838;28;46309;-50
2022/05/18 04:05:37;;;;;;;;;2.00;1.50;;;;;20.41;53.00;101404.47;5030303;28;45750;-49
2022/05/18 04:08:07;;;;;;;;;2.25;1.50;;;;;20.39;53.09;101398.41;5027981;28;45277;-50
2022/05/18 04:10:32;;;;;;;;;5.25;1.00;;;;;20.28;53.17;101388.41;5029286;28;45475;-49
2022/05/18 04:12:58;;;;;;;;;2.00;2.00;;;;;20.35;52.54;101408.34;5030058;28;46068;-50
2022/05/18 04:15:23;;;;;;;;;2.75;2.00;;;;;20.33;52.56;101414.69;5027200;28;45526;-48
2022/05/18 04:17:49;;;;;;;;;1.00;1.00;;;;;20.28;52.58;101415.81;5026895;28;45521;-48
2022/05/18 04:20:20;;;;;;;;;2.50;1.25;;;;;20.25;52.41;101410.66;5032592;28;69556;-48
2022/05/18 04:22:46;;;;;;;;;2.00;1.00;;;;;20.21;52.35;101418.94;5035118;28;46216;-50
2022/05/18 04:25:15;;;;;;;;;2.00;2.00;;;;;20.17;52.85;101418.25;5032370;28;45642;-50
2022/05/18 04:27:42;;;;;;;;;2.00;2.00;;;;;20.15;52.73;101412.16;5028817;28;45210;-51
2022/05/18 04:30:08;;;;;;;;;4.00;2.00;;;;;20.12;52.58;101414.13;5035221;28;45602;-48
2022/05/18 04:32:34;;;;;;;;;1.00;1.00;;;;;20.09;52.75;101416.00;5027127;28;45353;-49
2022/05/18 04:34:59;;;;;;;;;2.00;1.75;;;;;20.06;52.72;101413.53;5031597;28;45190;-49
2022/05/18 04:37:25;;;;;;;;;1.00;1.00;;;;;20.04;52.97;101409.22;5033175;28;59490;-51
2022/05/18 04:39:50;;;;;;;;;4.00;1.00;;;;;20.01;52.82;101406.75;5036558;28;52692;-49
2022/05/18 04:42:16;;;;;;;;;3.50;2.00;;;;;20.00;52.33;101405.88;5023307;28;45481;-50
2022/05/18 04:44:41;;;;;;;;;2.50;2.00;;;;;20.02;52.77;101406.66;5037640;28;45348;-51
2022/05/18 04:47:07;;;;;;;;;1.00;1.00;;;;;20.05;52.30;101418.94;5037912;28;45351;-49
2022/05/18 04:49:35;;;;;;;;;1.00;1.00;;;;;20.06;53.06;101431.25;5046331;28;56625;-48
2022/05/18 04:52:01;;;;;;;;;4.25;2.25;;;;;20.07;52.52;101433.84;5025822;28;46233;-47
2022/05/18 04:54:26;;;;;;;;;2.50;1.00;;;;;20.11;52.82;101447.81;5031184;28;45542;-51
2022/05/18 04:56:52;;;;;;;;;1.00;1.00;;;;;20.10;52.53;101443.44;5029976;28;45697;-51
2022/05/18 04:59:17;;;;;;;;;3.00;2.00;;;;;20.07;52.38;101446.28;5028535;28;65703;-50
2022/05/18 05:01:43;;;;;;;;;2.25;2.00;;;;;20.06;52.65;101445.41;5034137;28;46257;-50
2022/05/18 05:04:13;;;;;;;;;3.00;1.75;;;;;20.07;52.23;101449.78;5031635;28;45353;-52
2022/05/18 05:06:40;;;;;;;;;3.00;1.00;;;;;20.05;52.74;101453.47;5026404;28;45431;-50
2022/05/18 05:09:06;;;;;;;;;3.00;2.00;;;;;20.06;53.03;101452.50;5030676;28;45345;-49
2022/05/18 05:11:32;;;;;;;;;1.25;1.25;;;;;20.12;52.51;101459.31;5027909;28;46184;-49
2022/05/18 05:13:57;;;;;;;;;1.00;1.00;;;;;20.14;52.16;101466.25;5025418;28;45242;-49
2022/05/18 05:16:23;;;;;;;;;2.00;1.50;;;;;20.14;52.51;101457.41;5024997;28;62891;-49
2022/05/18 05:18:48;;;;;;;;;2.00;0.50;;;;;20.21;52.40;101456.13;5025354;28;65966;-48
2022/05/18 05:21:13;;;;;;;;;2.00;1.00;;;;;20.26;52.16;101464.72;5029023;28;68560;-48
2022/05/18 05:23:39;;;;;;;;;1.00;1.00;;;;;20.29;52.00;101470.72;5036916;28;45463;-49
2022/05/18 05:26:04;;;;;;;;;1.50;1.00;;;;;20.32;51.90;101476.78;5024274;28;45379;-52
2022/05/18 05:28:30;;;;;;;;;1.00;1.00;;;;;20.34;52.02;101482.88;5031913;28;45590;-52
2022/05/18 05:31:04;;;;;;;;;1.00;1.00;;;;;20.35;51.68;101481.94;5026892;28;47039;-51
2022/05/18 05:33:30;;;;;;;;;4.00;2.25;;;;;20.35;51.25;101487.25;5022263;28;45652;-52
2022/05/18 05:35:55;;;;;;;;;2.50;1.00;;;;;20.34;51.52;101481.06;5031282;28;45225;-50
2022/05/18 05:38:20;;;;;;;;;2.00;2.00;;;;;20.36;51.49;101492.50;5021214;28;68161;-52
2022/05/18 05:40:46;;;;;;;;;3.50;2.00;;;;;20.37;51.53;101491.53;5027095;28;69569;-49
2022/05/18 05:43:12;;;;;;;;;2.75;2.00;;;;;20.41;51.44;101495.72;5024848;28;45380;-51
2022/05/18 05:45:38;;;;;;;;;2.25;2.00;;;;;20.45;50.88;101497.28;5035758;28;45296;-51
2022/05/18 05:48:05;;;;;;;;;3.50;2.00;;;;;20.46;51.14;101498.13;5025827;28;45751;-46
2022/05/18 05:50:30;;;;;;;;;2.75;1.00;;;;;20.48;50.91;101502.41;5040844;28;46316;-47
2022/05/18 05:52:57;;;;;;;;;3.00;2.00;;;;;20.53;50.80;101503.97;5025919;28;45289;-48
2022/05/18 05:55:23;;;;;;;;;1.75;1.75;;;;;20.55;50.71;101510.91;5035548;28;45183;-47
2022/05/18 05:57:48;;;;;;;;;2.00;0.25;;;;;20.59;50.42;101512.47;5035547;28;45249;-47
2022/05/18 06:00:14;;;;;;;;;3.00;1.00;;;;;20.62;50.35;101506.97;5037090;28;66838;-48
2022/05/18 06:02:39;;;;;;;;;3.00;2.00;;;;;20.67;50.50;101507.59;5032468;28;45309;-48
2022/05/18 06:05:05;;;;;;;;;2.25;1.00;;;;;20.73;50.40;101510.84;5021341;28;45223;-50
2022/05/18 06:07:31;;;;;;;;;2.25;1.00;;;;;20.77;50.11;101512.38;5036712;28;45506;-51
2022/05/18 06:09:56;;;;;;;;;2.00;1.75;;;;;20.79;50.18;101514.00;5027008;28;56433;-49
2022/05/18 06:12:24;;;;;;;;;2.75;1.00;;;;;20.83;50.08;101522.66;5038058;28;45332;-48
2022/05/18 06:14:50;;;;;;;;;2.75;1.00;;;;;20.82;49.60;101512.97;5025507;28;45618;-50
2022/05/18 06:17:15;;;;;;;;;1.00;1.00;;;;;20.84;49.72;101517.25;5030420;28;58040;-49
2022/05/18 06:19:41;;;;;;;;;1.25;1.00;;;;;20.87;49.82;101521.53;5027561;28;46154;-49
2022/05/18 06:22:06;;;;;;;;;2.75;1.50;;;;;20.91;49.55;101522.22;5034703;28;66898;-49
2022/05/18 06:24:31;;;;;;;;;2.50;1.00;;;;;20.95;49.61;101518.44;5036543;28;45281;-49
2022/05/18 06:26:58;;;;;;;;;1.75;1.00;;;;;20.98;49.31;101526.22;5027624;28;45491;-49
2022/05/18 06:29:24;;;;;;;;;1.00;1.00;;;;;20.96;49.31;101515.69;5036115;28;46234;-49
2022/05/18 06:31:50;;;;;;;;;2.25;0.25;;;;;20.98;49.15;101524.44;5036771;28;45404;-51
2022/05/18 06:34:15;;;;;;;;;0.75;0.75;;;;;20.98;49.01;101528.91;5029272;28;45364;-47
2022/05/18 06:36:40;;;;;;;;;2.00;1.25;;;;;20.98;48.92;101521.78;5029953;28;45248;-47
2022/05/18 06:39:06;;;;;;;;;0.50;0.50;;;;;20.99;48.90;101526.16;5029003;28;69112;-48
2022/05/18 06:41:32;;;;;;;;;1.50;0.50;;;;;21.00;48.74;101517.22;5027254;28;45268;-48
2022/05/18 06:44:01;;;;;;;;;1.00;1.00;;;;;21.03;48.38;101522.38;5035883;28;45466;-50
2022/05/18 06:46:27;;;;;;;;;2.00;1.00;;;;;21.07;48.15;101522.19;5021508;28;45289;-49
2022/05/18 06:48:53;;;;;;;;;1.00;1.00;;;;;21.12;48.67;101523.63;5032751;28;47111;-47
2022/05/18 06:51:25;;;;;;;;;1.00;1.00;;;;;21.15;48.31;101520.78;5025688;28;45289;-47
2022/05/18 06:53:52;;;;;;;;;2.00;1.00;;;;;21.19;48.03;101526.78;5031039;28;45672;-50
2022/05/18 06:56:19;;;;;;;;;3.75;1.00;;;;;21.23;47.89;101528.34;5033623;28;45609;-47
2022/05/18 06:58:47;;;;;;;;;1.00;1.00;;;;;21.28;47.79;101528.03;5037273;28;48276;-48
2022/05/18 07:01:12;;;;;;;;;1.00;1.00;;;;;21.31;47.91;101525.22;5031011;28;45246;-49
2022/05/18 07:03:37;;;;;;;;;1.00;1.00;;;;;21.33;47.78;101513.50;5020853;28;63732;-47
2022/05/18 07:06:03;;;;;;;;;1.50;1.00;;;;;21.41;47.73;101523.72;5025112;28;64715;-47
2022/05/18 07:08:29;;;;;;;;;1.00;1.00;;;;;21.45;48.10;101522.56;5028189;28;45524;-50
2022/05/18 07:10:54;;;;;;;;;1.00;1.00;;;;;21.43;47.75;101525.31;5021451;28;54942;-48
2022/05/18 07:13:19;;;;;;;;;2.00;1.00;;;;;21.42;47.97;101526.28;5030482;28;52399;-48
2022/05/18 07:15:45;;;;;;;;;2.00;1.00;;;;;21.39;47.98;101522.94;5034713;28;63057;-48
2022/05/18 07:18:10;;;;;;;;;2.00;1.25;;;;;21.38;47.93;101516.75;5024573;28;46097;-50
2022/05/18 07:20:36;;;;;;;;;0.50;0.50;;;;;21.38;48.23;101523.88;5031559;28;52931;-50
2022/05/18 07:23:01;;;;;;;;;0.25;0.25;;;;;21.43;48.15;101524.47;5029410;28;46183;-47
2022/05/18 07:25:27;;;;;;;;;1.00;1.00;;;;;21.49;47.97;101517.94;5029043;28;60810;-48
2022/05/18 07:27:53;;;;;;;;;3.50;2.00;;;;;21.55;47.88;101513.13;5020863;28;46307;-50
2022/05/18 07:30:18;;;;;;;;;1.00;1.00;;;;;21.65;48.12;101512.53;5028638;28;45415;-50
2022/05/18 07:32:43;;;;;;;;;4.00;1.00;;;;;21.72;47.66;101514.72;5033710;28;45277;-48
2022/05/18 07:35:09;;;;;;;;;1.00;1.00;;;;;21.80;47.25;101517.78;5023356;28;45328;-50
2022/05/18 07:37:34;;;;;;;;;1.00;1.00;;;;;21.87;47.58;101530.72;5028403;28;45587;-48
2022/05/18 07:40:00;;;;;;;;;2.00;1.00;;;;;21.91;47.61;101533.09;5022722;28;45233;-47
2022/05/18 07:42:26;;;;;;;;;1.00;1.00;;;;;21.96;47.25;101525.69;5020444;28;57579;-48
2022/05/18 07:44:51;;;;;;;;;2.00;1.00;;;;;21.99;47.50;101522.84;5029018;28;45485;-48
2022/05/18 07:47:16;;;;;;;;;2.25;1.25;;;;;22.06;47.48;101531.31;5019572;28;66279;-47
2022/05/18 07:49:42;;;;;;;;;4.75;2.00;;;;;22.13;47.26;101519.31;5021097;28;64654;-48
2022/05/18 07:52:08;;;;;;;;;3.00;2.00;;;;;22.19;47.36;101524.22;5028845;28;45361;-49
2022/05/18 07:54:34;;;;;;;;;3.00;2.00;;;;;22.25;47.38;101522.13;5030217;28;45702;-49
2022/05/18 07:57:00;;;;;;;;;2.75;2.75;;;;;22.33;47.23;101518.06;5023737;28;46266;-50
2022/05/18 07:59:26;;;;;;;;;3.50;3.00;;;;;22.36;47.08;101515.19;5027478;28;45368;-50
2022/05/18 08:01:51;;;;;;;;;2.00;1.50;;;;;22.44;47.16;101517.38;5022505;28;45474;-47
2022/05/18 08:04:17;;;;;;;;;2.00;2.00;;;;;22.53;47.56;101519.44;5026059;28;45475;-47
2022/05/18 08:06:43;;;;;;;;;4.00;1.75;;;;;22.61;47.07;101515.41;5022055;28;46184;-47
2022/05/18 08:09:08;;;;;;;;;1.50;1.50;;;;;22.68;46.83;101516.69;5024146;28;45654;-50
2022/05/18 08:17:01;;;;;;;;;1.50;1.50;;;;;22.88;46.92;101518.94;5020074;28;45471;-50
2022/05/18 08:19:27;;;;;;;;;3.25;1.50;;;;;22.94;46.62;101523.00;5029916;28;45277;-48
2022/05/18 08:21:52;;;;;;;;;2.25;2.00;;;;;22.97;46.13;101517.47;5021863;28;45206;-48
2022/05/18 08:24:18;;;;;;;;;1.00;1.00;;;;;23.03;46.16;101513.50;5024670;28;67435;-49
2022/05/18 08:26:43;;;;;;;;;3.25;1.00;;;;;23.10;46.19;101509.50;5026146;28;66823;-47
2022/05/18 08:29:09;;;;;;;;;5.00;4.25;;;;;23.13;46.11;101512.81;5026534;28;61755;-47
2022/05/18 08:31:35;;;;;;;;;6.25;4.75;;;;;23.18;46.02;101515.19;5022140;28;46446;-49
2022/05/18 08:34:01;;;;;;;;;10.00;4.25;;;;;23.27;46.56;101508.38;5021958;28;64997;-49
2022/05/18 08:36:26;;;;;;;;;5.00;2.00;;;;;23.36;46.46;101510.41;5033215;28;46214;-47
2022/05/18 08:38:55;;;;;;;;;2.25;2.00;;;;;23.50;46.00;101512.97;5025142;28;45340;-49
2022/05/18 08:41:43;;;;;;;;;6.25;3.00;;;;;23.64;45.82;101503.16;5023325;28;45565;-47
2022/05/18 08:44:09;;;;;;;;;3.75;2.00;;;;;23.74;45.75;101509.53;5021991;28;45376;-47
2022/05/18 08:46:58;;;;;;;;;2.75;2.75;;;;;23.83;45.54;101508.06;5028565;28;47086;-48
2022/05/18 08:49:30;;;;;;;;;4.00;4.00;;;;;23.93;45.66;101513.63;5027863;28;45713;-49
2022/05/18 08:52:21;;;;;;;;;3.00;3.00;;;;;24.04;45.40;101508.34;5037365;28;45332;-48
2022/05/18 08:54:59;;;;;;;;;7.25;3.00;;;;;24.14;45.59;101506.75;5028014;28;45296;-49
2022/05/18 08:57:33;;;;;;;;;4.75;2.00;;;;;24.20;45.50;101503.59;5032382;28;45356;-49
2022/05/18 09:00:12;;;;;;;;;3.25;3.25;;;;;24.27;45.55;101506.69;5025611;28;45750;-48
2022/05/18 09:02:41;;;;;;;;;3.25;3.00;;;;;24.36;45.05;101514.03;5034835;28;45419;-48
2022/05/18 09:05:12;;;;;;;;;5.75;2.00;;;;;24.48;44.66;101498.91;5034388;28;45379;-49
2022/05/18 09:07:42;;;;;;;;;3.00;2.50;;;;;24.60;45.08;101505.22;5027691;28;46366;-50
2022/05/18 09:10:18;;;;;;;;;3.00;3.00;;;;;24.70;44.47;101500.91;5026010;28;45320;-50
2022/05/18 09:12:46;;;;;;;;;1.75;1.50;;;;;24.76;44.15;101497.75;5023533;28;45444;-49
2022/05/18 09:15:17;;;;;;;;;4.00;2.00;;;;;24.79;44.35;101494.84;5027189;28;45535;-48
2022/05/18 09:18:25;;;;;;;;;2.50;2.50;;;;;24.91;44.16;101498.41;5025875;28;46090;-48
2022/05/18 09:21:06;;;;;;;;;1.25;1.25;;;;;24.98;44.05;101490.78;5020521;28;45408;-49
2022/05/18 09:23:41;;;;;;;;;2.00;2.00;;;;;25.04;43.94;101493.00;5025034;28;45304;-49
2022/05/18 09:26:31;;;;;;;;;2.00;2.00;;;;;25.12;43.48;101492.41;5028999;28;45403;-48
2022/05/18 09:29:13;;;;;;;;;2.00;1.25;;;;;25.22;43.78;101481.84;5038157;28;46603;-49
2022/05/18 09:31:47;;;;;;;;;2.25;1.75;;;;;25.34;43.92;101484.47;5024004;28;45279;-48
2022/05/18 09:34:36;;;;;;;;;2.25;1.25;;;;;25.51;43.49;101479.59;5031280;28;45420;-50
2022/05/18 09:37:16;;;;;;;;;3.00;2.25;;;;;25.62;43.46;101482.31;5022247;28;45591;-49
2022/05/18 09:39:47;;;;;;;;;5.00;2.25;;;;;25.75;43.38;101477.66;5026601;28;46321;-49
2022/05/18 09:42:16;;;;;;;;;5.50;5.50;;;;;26.11;43.27;101480.22;5037415;28;45651;-48
2022/05/18 09:44:51;;;;;;;;;5.25;2.25;;;;;26.84;42.93;101476.00;5020691;28;45474;-49
2022/05/18 09:47:19;;;;;;;;;3.00;3.00;;;;;28.30;41.37;101470.50;5028028;28;45740;-49
2022/05/18 09:49:48;;;;;;;;;3.50;2.00;;;;;30.17;38.90;101475.38;5040831;28;45459;-48
2022/05/18 09:52:17;;;;;;;;;1.50;1.50;;;;;31.79;36.55;101475.19;5040183;28;45342;-48
2022/05/18 09:54:42;;;;;;;;;1.75;1.75;;;;;33.22;33.43;101473.22;5031228;28;45376;-51
2022/05/18 09:57:19;;;;;;;;;2.50;2.50;;;;;34.65;32.90;101468.63;5028191;28;56151;-52
2022/05/18 09:59:47;;;;;;;;;2.00;2.00;;;;;35.95;30.86;101465.59;5025787;28;45505;-51
2022/05/18 10:07:55;;;;;;;;;3.50;1.75;;;;;39.40;27.34;101465.81;5028264;28;45776;-51
2022/05/18 10:10:29;;;;;;;;;1.00;1.00;;;;;40.14;26.13;101458.16;5029219;28;65663;-50
2022/05/18 10:12:55;;;;;;;;;1.25;1.25;;;;;40.56;25.53;101456.59;5025222;28;45256;-52
2022/05/18 10:15:37;;;;;;;;;1.75;1.00;;;;;40.97;24.69;101465.34;5028233;28;45321;-52
2022/05/18 10:18:27;;;;;;;;;2.00;1.25;;;;;41.38;24.35;101454.78;5021948;28;45479;-52
2022/05/18 10:21:10;;;;;;;;;3.25;1.00;;;;;41.81;22.75;101451.94;5030245;28;47104;-51
2022/05/18 10:23:41;;;;;;;;;2.00;0.75;;;;;42.19;23.35;101449.94;5027206;28;45880;-52
2022/05/18 10:26:12;;;;;;;;;1.00;0.00;;;;;42.23;22.25;101448.38;5029409;28;45558;-51
2022/05/18 10:28:42;;;;;;;;;1.00;1.00;;;;;42.13;21.56;101437.13;5028110;28;45578;-52
2022/05/18 10:31:08;;;;;;;;;1.25;1.25;;;;;42.33;21.20;101437.66;5026326;28;46348;-51
2022/05/18 10:33:41;;;;;;;;;0.50;0.00;;;;;42.56;21.39;101428.63;5025474;28;45462;-50
2022/05/18 10:36:24;;;;;;;;;2.00;1.00;;;;;43.03;20.69;101425.88;5026487;28;45533;-51
2022/05/18 10:38:56;;;;;;;;;1.00;0.00;;;;;43.55;20.59;101418.69;5024174;28;45451;-49
2022/05/18 10:41:38;;;;;;;;;1.00;1.00;;;;;44.03;20.47;101419.34;5025511;28;46247;-51
2022/05/18 10:44:05;;;;;;;;;1.25;1.25;;;;;44.33;20.70;101413.53;5028500;28;45439;-52
2022/05/18 10:46:34;;;;;;;;;1.50;1.50;;;;;44.47;20.46;101419.53;5026025;28;45386;-50
2022/05/18 10:49:03;;;;;;;;;3.50;2.25;;;;;44.69;19.84;101408.56;5025540;28;45264;-51
2022/05/18 10:51:43;;;;;;;;;4.00;2.00;;;;;44.85;19.34;101404.09;5028621;28;46503;-49
2022/05/18 10:54:15;;;;;;;;;1.50;1.50;;;;;44.86;19.47;101406.59;5024280;28;45387;-49
2022/05/18 10:56:41;;;;;;;;;1.75;1.00;;;;;45.19;18.57;101413.16;5031736;28;45309;-50
2022/05/18 10:59:22;;;;;;;;;1.25;1.25;;;;;45.51;18.64;101409.69;5022204;28;45280;-51
2022/05/18 11:02:21;;;;;;;;;1.00;1.00;;;;;46.04;17.98;101399.72;5033229;28;45504;-52
2022/05/18 11:05:15;;;;;;;;;2.75;1.75;;;;;46.36;17.45;101386.94;5017642;28;45500;-51
2022/05/18 11:07:40;;;;;;;;;1.50;1.00;;;;;46.45;17.52;101396.44;5024822;28;45467;-49
2022/05/18 11:10:06;;;;;;;;;2.50;1.00;;;;;46.16;17.62;101396.78;5025876;28;45335;-52
2022/05/18 11:13:01;;;;;;;;;1.00;0.00;;;;;46.16;16.82;101384.88;5028839;28;46601;-50
2022/05/18 11:15:37;;;;;;;;;3.50;2.00;;;;;46.17;17.43;101397.63;5021540;28;45301;-52
2022/05/18 11:18:18;;;;;;;;;3.25;2.00;;;;;46.13;16.90;101397.31;5035391;28;45364;-50
2022/05/18 11:21:08;;;;;;;;;1.50;1.50;;;;;45.98;16.93;101395.22;5028392;28;45254;-52
2022/05/18 11:23:58;;;;;;;;;3.75;2.00;;;;;45.85;16.94;101399.25;5035402;28;45282;-50
2022/05/18 11:26:48;;;;;;;;;2.25;1.75;;;;;45.65;17.13;101397.13;5022289;28;45420;-48
2022/05/18 11:29:32;;;;;;;;;2.00;2.00;;;;;45.28;17.20;101403.31;5025726;28;45325;-49
2022/05/18 11:32:07;;;;;;;;;0.25;0.25;;;;;45.02;17.13;101393.03;5032413;28;45276;-49
2022/05/18 11:34:41;;;;;;;;;2.00;2.00;;;;;44.92;17.15;101390.94;5034562;28;47090;-49
2022/05/18 11:37:09;;;;;;;;;1.25;1.25;;;;;44.72;17.20;101388.75;5029788;28;45407;-51
2022/05/18 11:39:40;;;;;;;;;1.00;1.00;;;;;44.61;17.10;101385.00;5028177;28;45322;-50
2022/05/18 11:42:44;;;;;;;;;2.75;2.25;;;;;44.74;16.84;101383.78;5030969;28;45379;-48
2022/05/18 11:45:19;;;;;;;;;0.00;0.00;;;;;45.04;16.53;101377.03;5003752;28;45451;-52
2022/05/18 11:47:51;;;;;;;;;0.25;0.25;;;;;45.15;17.16;101372.47;5022713;28;45603;-50
2022/05/18 11:50:31;;;;;;;;;1.25;1.25;;;;;44.99;17.19;101368.69;5033978;28;45591;-53